createdAt,value
2023-01-23T00:01:44.126Z,33.94
2023-01-23T00:04:14.223Z,33.93
2023-01-23T00:06:43.671Z,34.03
2023-01-23T00:09:12.116Z,34.08
2023-01-23T00:11:40.853Z,34.18
2023-01-23T00:14:10.679Z,34.29
2023-01-23T00:16:39.513Z,34.30
2023-01-23T00:19:07.955Z,34.26
2023-01-23T00:21:38.092Z,34.39
2023-01-23T00:24:07.733Z,34.44
2023-01-23T00:26:36.514Z,34.43
2023-01-23T00:29:05.041Z,34.42
2023-01-23T00:31:38.563Z,34.30
2023-01-23T00:34:12.011Z,34.56
2023-01-23T00:36:43.707Z,34.41
2023-01-23T00:39:21.352Z,34.56
2023-01-23T00:41:50.420Z,34.57
2023-01-23T00:44:19.155Z,34.66
2023-01-23T00:46:48.832Z,34.57
2023-01-23T00:49:19.857Z,34.63
2023-01-23T00:51:50.705Z,34.68
2023-01-23T00:54:21.500Z,34.53
2023-01-23T00:56:50.282Z,34.32
2023-01-23T00:59:18.863Z,34.60
2023-01-23T01:01:47.857Z,34.68
2023-01-23T01:04:16.345Z,34.64
2023-01-23T01:06:45.135Z,34.63
2023-01-23T01:09:13.634Z,34.52
2023-01-23T01:11:42.519Z,34.64
2023-01-23T01:14:11.090Z,34.64
2023-01-23T01:16:45.471Z,34.48
2023-01-23T01:19:15.022Z,34.82
2023-01-23T01:21:43.975Z,34.94
2023-01-23T01:24:13.508Z,34.99
2023-01-23T01:26:42.574Z,34.92
2023-01-23T01:29:11.523Z,34.87
2023-01-23T01:31:40.358Z,34.96
2023-01-23T01:34:08.989Z,34.66
2023-01-23T01:36:38.492Z,34.87
2023-01-23T01:39:06.982Z,34.98
2023-01-23T01:41:36.963Z,34.93
2023-01-23T01:44:05.455Z,34.75
2023-01-23T01:46:34.431Z,34.86
2023-01-23T01:49:09.063Z,34.83
2023-01-23T01:51:56.031Z,34.97
2023-01-23T01:54:44.269Z,34.96
2023-01-23T01:57:33.128Z,34.82
2023-01-23T02:00:18.674Z,34.88
2023-01-23T02:03:01.212Z,35.05
2023-01-23T02:05:42.191Z,35.12
2023-01-23T02:08:38.272Z,35.10
2023-01-23T02:11:07.963Z,35.30
2023-01-23T02:13:39.098Z,35.21
2023-01-23T02:16:10.911Z,35.12
2023-01-23T02:18:45.650Z,35.06
2023-01-23T02:21:15.397Z,35.25
2023-01-23T02:24:15.116Z,35.27
2023-01-23T02:26:45.802Z,35.07
2023-01-23T02:29:15.785Z,35.22
2023-01-23T02:31:53.914Z,35.53
2023-01-23T02:34:26.503Z,35.29
2023-01-23T02:37:00.548Z,35.36
2023-01-23T02:39:29.678Z,35.57
2023-01-23T02:41:58.603Z,35.51
2023-01-23T02:44:41.620Z,35.70
2023-01-23T02:47:12.599Z,35.52
2023-01-23T02:49:43.352Z,35.41
2023-01-23T02:52:12.593Z,35.60
2023-01-23T02:54:41.449Z,35.56
2023-01-23T02:57:13.298Z,35.61
2023-01-23T03:00:01.011Z,35.62
2023-01-23T03:02:29.972Z,35.60
2023-01-23T03:04:58.892Z,35.75
2023-01-23T03:07:29.843Z,35.68
2023-01-23T03:09:58.735Z,35.64
2023-01-23T03:12:28.190Z,35.75
2023-01-23T03:14:58.211Z,35.66
2023-01-23T03:17:27.412Z,35.78
2023-01-23T03:19:57.939Z,35.73
2023-01-23T03:22:27.494Z,35.86
2023-01-23T03:24:58.172Z,35.94
2023-01-23T03:27:26.891Z,35.85
2023-01-23T03:30:13.747Z,35.86
2023-01-23T03:32:45.937Z,35.68
2023-01-23T03:35:20.530Z,35.69
2023-01-23T03:37:52.563Z,36.00
2023-01-23T03:40:43.995Z,35.64
2023-01-23T03:43:16.215Z,35.63
2023-01-23T03:45:51.243Z,35.97
2023-01-23T03:48:19.953Z,35.72
2023-01-23T03:50:50.995Z,35.73
2023-01-23T03:53:22.786Z,35.93
2023-01-23T03:55:51.831Z,35.77
2023-01-23T03:58:21.090Z,35.88
2023-01-23T04:00:50.319Z,36.03
2023-01-23T04:03:19.152Z,36.03
2023-01-23T04:05:48.895Z,35.88
2023-01-23T04:08:19.201Z,36.08
2023-01-23T04:10:49.392Z,35.97
2023-01-23T04:13:18.452Z,35.87
2023-01-23T04:15:48.913Z,36.10
2023-01-23T04:18:17.936Z,35.77
2023-01-23T04:20:47.972Z,35.97
2023-01-23T04:23:16.781Z,35.85
2023-01-23T04:25:45.614Z,35.90
2023-01-23T04:28:15.739Z,35.79
2023-01-23T04:30:47.027Z,35.86
2023-01-23T04:33:22.115Z,35.71
2023-01-23T04:35:57.208Z,36.09
2023-01-23T04:38:28.559Z,36.18
2023-01-23T04:40:57.833Z,36.31
2023-01-23T04:43:26.401Z,35.92
2023-01-23T04:45:56.980Z,35.68
2023-01-23T04:48:28.132Z,35.76
2023-01-23T04:50:57.068Z,35.58
2023-01-23T04:53:25.672Z,35.33
2023-01-23T04:56:01.311Z,34.81
2023-01-23T04:58:29.924Z,35.09
2023-01-23T05:01:08.331Z,34.68
2023-01-23T05:03:39.170Z,34.58
2023-01-23T05:06:08.260Z,34.44
2023-01-23T05:08:37.171Z,34.11
2023-01-23T05:11:16.574Z,33.95
2023-01-23T05:13:46.051Z,33.92
2023-01-23T05:16:15.723Z,33.87
2023-01-23T05:19:16.114Z,33.72
2023-01-23T05:21:47.023Z,33.57
2023-01-23T05:24:22.189Z,33.34
2023-01-23T05:26:52.123Z,33.20
2023-01-23T05:29:22.013Z,33.21
2023-01-23T05:32:16.952Z,33.26
2023-01-23T05:34:45.564Z,33.10
2023-01-23T05:37:20.739Z,33.12
2023-01-23T05:39:53.650Z,32.86
2023-01-23T05:42:37.875Z,32.51
2023-01-23T05:45:26.996Z,32.51
2023-01-23T05:47:56.343Z,32.38
2023-01-23T05:50:25.688Z,32.69
2023-01-23T05:52:55.743Z,32.27
2023-01-23T05:55:24.643Z,32.61
2023-01-23T05:57:53.343Z,32.67
2023-01-23T06:00:40.513Z,32.37
2023-01-23T06:03:34.962Z,32.34
2023-01-23T06:06:24.946Z,32.32
2023-01-23T06:08:54.716Z,32.46
2023-01-23T06:11:23.395Z,32.55
2023-01-23T06:13:54.223Z,32.59
2023-01-23T06:16:23.714Z,32.54
2023-01-23T06:18:53.087Z,32.49
2023-01-23T06:21:23.291Z,32.63
2023-01-23T06:23:51.802Z,32.83
2023-01-23T06:26:23.959Z,32.97
2023-01-23T06:28:52.422Z,33.12
2023-01-23T06:31:21.324Z,33.42
2023-01-23T06:33:56.180Z,33.37
2023-01-23T06:36:30.691Z,33.85
2023-01-23T06:39:00.558Z,33.56
2023-01-23T06:41:38.274Z,33.65
2023-01-23T06:44:09.047Z,33.86
2023-01-23T06:46:41.694Z,33.88
2023-01-23T06:49:11.301Z,33.95
2023-01-23T06:51:41.534Z,34.18
2023-01-23T06:54:14.804Z,34.13
2023-01-23T06:56:43.699Z,34.25
2023-01-23T06:59:13.103Z,34.30
2023-01-23T07:01:43.301Z,34.38
2023-01-23T07:04:14.423Z,34.53
2023-01-23T07:06:47.374Z,34.70
2023-01-23T07:09:17.955Z,34.80
2023-01-23T07:11:56.593Z,34.69
2023-01-23T07:14:27.383Z,35.00
2023-01-23T07:16:58.807Z,34.98
2023-01-23T07:19:27.536Z,35.04
2023-01-23T07:22:01.823Z,35.19
2023-01-23T07:24:31.982Z,35.42
2023-01-23T07:27:00.832Z,35.40
2023-01-23T07:29:29.340Z,35.50
2023-01-23T07:32:01.562Z,35.73
2023-01-23T07:34:29.912Z,35.76
2023-01-23T07:37:00.163Z,35.99
2023-01-23T07:39:31.443Z,36.12
2023-01-23T07:42:00.310Z,36.25
2023-01-23T07:44:30.468Z,36.45
2023-01-23T07:46:59.194Z,36.60
2023-01-23T07:49:27.680Z,36.69
2023-01-23T07:51:56.484Z,37.24
2023-01-23T07:54:27.221Z,36.97
2023-01-23T07:56:57.084Z,37.31
2023-01-23T07:59:25.583Z,37.40
2023-01-23T08:01:55.668Z,37.44
2023-01-23T08:04:25.744Z,37.62
2023-01-23T08:06:54.515Z,37.81
2023-01-23T08:09:23.172Z,37.99
2023-01-23T08:11:52.831Z,38.10
2023-01-23T08:14:21.273Z,38.15
2023-01-23T08:16:53.070Z,37.91
2023-01-23T08:19:21.597Z,38.41
2023-01-23T08:21:50.414Z,38.51
2023-01-23T08:24:18.892Z,38.45
2023-01-23T08:26:47.837Z,38.61
2023-01-23T08:29:16.245Z,38.78
2023-01-23T08:31:45.002Z,38.83
2023-01-23T08:34:15.446Z,38.82
2023-01-23T08:36:46.193Z,38.63
2023-01-23T08:39:14.836Z,38.74
2023-01-23T08:41:43.532Z,38.77
2023-01-23T08:44:12.229Z,38.86
2023-01-23T08:46:41.112Z,39.03
2023-01-23T08:49:11.239Z,39.07
2023-01-23T08:51:44.055Z,39.09
2023-01-23T08:54:12.769Z,39.22
2023-01-23T08:56:44.392Z,39.36
2023-01-23T08:59:12.850Z,39.35
2023-01-23T09:01:41.541Z,39.28
2023-01-23T09:04:09.956Z,39.30
2023-01-23T09:06:39.156Z,39.48
2023-01-23T09:09:07.551Z,39.24
2023-01-23T09:11:38.531Z,39.46
2023-01-23T09:14:07.020Z,39.70
2023-01-23T09:16:35.837Z,39.42
2023-01-23T09:19:04.414Z,39.63
2023-01-23T09:21:33.164Z,39.58
2023-01-23T09:24:01.612Z,39.56
2023-01-23T09:26:30.494Z,39.51
2023-01-23T09:28:58.843Z,39.65
2023-01-23T09:31:27.589Z,39.75
2023-01-23T09:33:56.036Z,39.69
2023-01-23T09:36:41.397Z,39.95
2023-01-23T09:39:11.120Z,39.73
2023-01-23T09:41:41.692Z,39.80
2023-01-23T09:44:39.586Z,39.97
2023-01-23T09:47:23.825Z,40.01
2023-01-23T09:50:00.660Z,40.20
2023-01-23T09:52:43.615Z,40.31
2023-01-23T09:55:49.285Z,40.11
2023-01-23T09:59:05.531Z,40.40
2023-01-23T10:01:34.024Z,40.28
2023-01-23T10:04:02.990Z,40.62
2023-01-23T10:07:06.709Z,40.52
2023-01-23T10:09:48.330Z,40.57
2023-01-23T10:12:47.612Z,40.62
2023-01-23T10:15:38.730Z,40.65
2023-01-23T10:18:13.307Z,40.85
2023-01-23T10:21:13.514Z,40.87
2023-01-23T10:24:38.021Z,41.11
2023-01-23T10:27:24.342Z,41.06
2023-01-23T10:30:38.202Z,40.86
2023-01-23T10:33:17.614Z,41.52
2023-01-23T10:35:53.715Z,40.94
2023-01-23T10:38:40.393Z,40.94
2023-01-23T10:41:15.313Z,40.82
2023-01-23T10:43:55.361Z,41.10
2023-01-23T10:46:44.272Z,40.76
2023-01-23T10:49:24.562Z,40.70
2023-01-23T10:51:53.211Z,40.52
2023-01-23T10:54:34.003Z,40.37
2023-01-23T10:57:08.244Z,40.24
2023-01-23T10:59:39.833Z,40.00
2023-01-23T11:02:14.957Z,39.74
2023-01-23T11:04:46.265Z,39.66
2023-01-23T11:07:23.061Z,39.45
2023-01-23T11:09:57.526Z,39.15
2023-01-23T11:12:33.055Z,39.18
2023-01-23T11:15:24.159Z,39.09
2023-01-23T11:17:53.910Z,38.87
2023-01-23T11:20:39.261Z,38.88
2023-01-23T11:23:13.660Z,38.59
2023-01-23T11:25:45.363Z,38.52
2023-01-23T11:28:35.533Z,38.33
2023-01-23T11:31:21.897Z,38.19
2023-01-23T11:33:58.088Z,37.84
2023-01-23T11:36:48.863Z,38.04
2023-01-23T11:39:37.162Z,38.01
2023-01-23T11:42:08.061Z,38.00
2023-01-23T11:44:45.704Z,37.46
2023-01-23T11:47:41.204Z,37.78
2023-01-23T11:50:15.649Z,37.53
2023-01-23T11:53:07.416Z,37.44
2023-01-23T11:56:10.015Z,37.32
2023-01-23T11:59:10.379Z,37.60
2023-01-23T12:02:20.183Z,37.80
2023-01-23T12:05:13.645Z,38.38
2023-01-23T12:08:20.371Z,38.68
2023-01-23T12:11:16.814Z,39.27
2023-01-23T12:14:05.070Z,39.69
2023-01-23T12:16:48.582Z,39.97
2023-01-23T12:19:29.246Z,40.28
2023-01-23T12:22:00.954Z,40.45
2023-01-23T12:24:41.706Z,40.92
2023-01-23T12:27:34.627Z,40.91
2023-01-23T12:30:27.670Z,41.42
2023-01-23T12:33:20.496Z,41.59
2023-01-23T12:36:10.843Z,41.90
2023-01-23T12:38:55.702Z,42.07
2023-01-23T12:41:36.877Z,42.16
2023-01-23T12:44:12.956Z,42.36
2023-01-23T12:46:54.164Z,42.21
2023-01-23T12:49:45.815Z,42.34
2023-01-23T12:52:14.453Z,42.38
2023-01-23T12:54:53.894Z,42.53
2023-01-23T12:57:52.700Z,42.61
2023-01-23T13:01:06.264Z,42.47
2023-01-23T13:03:55.652Z,42.49
2023-01-23T13:06:28.901Z,42.48
2023-01-23T13:09:17.377Z,42.46
2023-01-23T13:12:22.713Z,42.59
2023-01-23T13:15:10.578Z,42.43
2023-01-23T13:18:02.316Z,42.46
2023-01-23T13:20:56.954Z,42.42
2023-01-23T13:23:35.927Z,42.34
2023-01-23T13:26:31.598Z,42.48
2023-01-23T13:29:02.716Z,42.45
2023-01-23T13:31:47.396Z,42.35
2023-01-23T13:34:16.773Z,42.46
2023-01-23T13:36:46.904Z,42.50
2023-01-23T13:39:19.987Z,42.33
2023-01-23T13:42:12.934Z,42.46
2023-01-23T13:45:16.436Z,42.67
2023-01-23T15:06:42.638Z,42.75
2023-01-23T15:09:17.063Z,42.31
2023-01-23T15:11:46.200Z,42.72
2023-01-23T15:14:27.332Z,42.51
2023-01-23T15:17:03.852Z,42.68
2023-01-23T15:19:32.900Z,42.56
2023-01-23T15:22:28.484Z,42.67
2023-01-23T15:24:57.557Z,42.64
2023-01-23T15:27:33.313Z,42.38
2023-01-23T15:30:31.574Z,42.34
2023-01-23T15:33:06.517Z,42.36
2023-01-23T15:35:36.807Z,42.35
2023-01-23T15:38:08.633Z,42.30
2023-01-23T15:40:38.435Z,42.24
2023-01-23T15:43:12.496Z,42.27
2023-01-23T15:45:41.480Z,42.37
2023-01-23T15:48:10.151Z,41.89
2023-01-23T15:50:39.228Z,42.29
2023-01-23T15:53:14.207Z,42.06
2023-01-23T15:55:43.165Z,42.01
2023-01-23T15:58:15.124Z,42.10
2023-01-23T16:00:44.545Z,42.11
2023-01-23T16:03:15.153Z,41.95
2023-01-23T16:05:44.114Z,42.13
2023-01-23T16:08:20.312Z,42.05
2023-01-23T16:10:50.495Z,41.84
2023-01-23T16:13:19.224Z,41.84
2023-01-23T16:15:48.934Z,41.75
2023-01-23T16:18:19.009Z,41.72
2023-01-23T16:20:48.080Z,41.52
2023-01-23T16:23:24.951Z,41.19
2023-01-23T16:25:54.124Z,41.08
2023-01-23T16:28:24.266Z,40.80
2023-01-23T16:30:53.577Z,40.45
2023-01-23T16:33:22.376Z,40.22
2023-01-23T16:35:51.772Z,39.96
2023-01-23T16:38:28.512Z,40.04
2023-01-23T16:41:00.706Z,39.73
2023-01-23T16:43:29.458Z,39.41
2023-01-23T16:45:58.581Z,39.42
2023-01-23T16:48:28.759Z,39.02
2023-01-23T16:51:11.863Z,39.06
2023-01-23T16:53:42.931Z,39.05
2023-01-23T16:56:23.849Z,38.84
2023-01-23T16:58:52.988Z,38.51
2023-01-23T17:01:23.228Z,38.66
2023-01-23T17:03:59.505Z,38.45
2023-01-23T17:06:29.620Z,38.49
2023-01-23T17:08:58.378Z,38.27
2023-01-23T17:11:35.590Z,38.24
2023-01-23T17:14:16.323Z,38.19
2023-01-23T17:16:45.457Z,38.11
2023-01-23T17:19:18.477Z,37.77
2023-01-23T17:21:47.525Z,37.59
2023-01-23T17:24:17.235Z,37.62
2023-01-23T17:26:46.448Z,37.38
2023-01-23T17:29:15.498Z,37.49
2023-01-23T17:31:44.755Z,37.52
2023-01-23T17:34:24.291Z,37.49
2023-01-23T17:36:54.566Z,37.05
2023-01-23T17:39:23.359Z,37.08
2023-01-23T17:41:54.077Z,37.51
2023-01-23T17:44:22.707Z,37.26
2023-01-23T17:46:54.978Z,37.07
2023-01-23T17:49:30.503Z,36.95
2023-01-23T17:52:02.162Z,36.74
2023-01-23T17:54:30.862Z,36.81
2023-01-23T17:57:00.035Z,36.63
2023-01-23T17:59:28.734Z,36.77
2023-01-23T18:01:58.959Z,36.46
2023-01-23T18:04:27.780Z,36.46
2023-01-23T18:06:57.920Z,36.49
2023-01-23T18:09:26.542Z,36.60
2023-01-23T18:11:56.061Z,36.35
2023-01-23T18:14:42.370Z,36.47
2023-01-23T18:17:50.269Z,36.12
2023-01-23T18:20:20.933Z,36.01
2023-01-23T18:22:51.667Z,36.33
2023-01-23T18:25:22.219Z,35.95
2023-01-23T18:27:55.777Z,36.29
2023-01-23T18:30:42.978Z,36.30
2023-01-23T18:33:21.802Z,36.40
2023-01-23T18:35:57.227Z,36.51
2023-01-23T18:38:37.716Z,36.64
2023-01-23T18:41:28.259Z,36.59
2023-01-23T18:44:15.548Z,36.60
2023-01-23T18:46:44.457Z,36.71
2023-01-23T18:49:21.495Z,36.81
2023-01-23T18:52:03.164Z,36.76
2023-01-23T18:54:51.937Z,37.03
2023-01-23T18:57:29.731Z,36.90
2023-01-23T19:00:20.177Z,37.10
2023-01-23T19:02:52.068Z,37.24
2023-01-23T19:05:33.915Z,37.22
2023-01-23T19:08:03.011Z,37.43
2023-01-23T19:10:47.558Z,37.42
2023-01-23T19:13:22.677Z,37.82
2023-01-23T19:16:19.420Z,37.60
2023-01-23T19:18:53.112Z,37.95
2023-01-23T19:21:27.020Z,38.11
2023-01-23T19:24:03.319Z,38.40
2023-01-23T19:26:40.871Z,38.49
2023-01-23T19:29:26.141Z,38.65
2023-01-23T19:32:09.910Z,38.91
2023-01-23T19:34:39.016Z,38.93
2023-01-23T19:37:08.392Z,39.41
2023-01-23T19:39:37.170Z,39.36
2023-01-23T19:42:06.319Z,39.36
2023-01-23T19:44:40.480Z,39.51
2023-01-23T19:47:35.318Z,39.74
2023-01-23T19:50:04.797Z,40.08
2023-01-23T19:52:35.723Z,40.16
2023-01-23T19:55:05.165Z,40.19
2023-01-23T19:57:34.653Z,40.04
2023-01-23T20:00:04.295Z,40.11
2023-01-23T20:02:40.939Z,40.41
2023-01-23T20:05:10.372Z,40.38
2023-01-23T20:07:39.759Z,40.47
2023-01-23T20:10:09.371Z,40.39
2023-01-23T20:12:57.054Z,40.28
2023-01-23T20:15:27.383Z,39.97
2023-01-23T20:17:58.262Z,40.06
2023-01-23T20:20:27.753Z,39.67
2023-01-23T20:22:56.981Z,39.66
2023-01-23T20:25:25.820Z,39.50
2023-01-23T20:27:55.051Z,39.31
2023-01-23T20:30:24.390Z,38.96
2023-01-23T20:32:54.530Z,38.81
2023-01-23T20:35:24.239Z,39.11
2023-01-23T20:37:54.354Z,38.83
2023-01-23T20:40:24.093Z,38.91
2023-01-23T20:42:54.224Z,39.16
2023-01-23T20:45:24.816Z,39.20
2023-01-23T20:47:58.560Z,39.34
2023-01-23T20:50:28.361Z,39.41
2023-01-23T20:53:17.181Z,39.26
2023-01-23T20:55:46.300Z,39.42
2023-01-23T20:58:34.133Z,39.40
2023-01-23T21:01:03.180Z,39.59
2023-01-23T21:03:32.682Z,39.55
2023-01-23T21:06:01.491Z,39.86
2023-01-23T21:08:30.620Z,39.73
2023-01-23T21:10:59.472Z,39.83
2023-01-23T21:13:28.652Z,39.88
2023-01-23T21:15:58.950Z,39.73
2023-01-23T21:18:27.925Z,39.90
2023-01-23T21:21:03.186Z,39.73
2023-01-23T21:23:32.371Z,39.56
2023-01-23T21:26:01.758Z,39.34
2023-01-23T21:28:33.454Z,39.10
2023-01-23T21:31:12.784Z,38.69
2023-01-23T21:33:49.443Z,38.46
2023-01-23T21:36:23.538Z,38.63
2023-01-23T21:38:53.089Z,38.54
2023-01-23T21:41:21.911Z,38.35
2023-01-23T21:43:50.983Z,38.43
2023-01-23T21:46:19.595Z,38.25
2023-01-23T21:48:49.648Z,38.40
2023-01-23T21:51:20.485Z,38.31
2023-01-23T21:53:50.191Z,38.55
2023-01-23T21:56:20.693Z,38.53
2023-01-23T21:58:50.861Z,38.42
2023-01-23T22:01:39.834Z,38.67
2023-01-23T22:04:18.985Z,38.88
2023-01-23T22:06:47.622Z,38.98
2023-01-23T22:09:18.430Z,38.87
2023-01-23T22:11:47.484Z,39.20
2023-01-23T22:14:17.460Z,39.01
2023-01-23T22:16:49.137Z,39.18
2023-01-23T22:19:24.728Z,39.30
2023-01-23T22:21:57.381Z,39.41
2023-01-23T22:24:26.285Z,39.26
2023-01-23T22:26:54.989Z,39.38
2023-01-23T22:29:24.176Z,39.47
2023-01-23T22:31:52.888Z,39.57
2023-01-23T22:34:21.826Z,39.58
2023-01-23T22:36:50.439Z,39.86
2023-01-23T22:39:20.287Z,39.77
2023-01-23T22:41:50.664Z,39.52
2023-01-23T22:44:20.747Z,39.75
2023-01-23T22:46:51.783Z,39.82
2023-01-23T22:49:20.895Z,39.86
2023-01-23T22:51:49.635Z,39.87
2023-01-23T22:54:18.773Z,39.99
2023-01-23T22:56:47.319Z,40.08
2023-01-23T22:59:16.370Z,40.06
2023-01-23T23:01:44.956Z,40.32
2023-01-23T23:04:13.749Z,40.10
2023-01-23T23:06:42.273Z,40.16
2023-01-23T23:09:11.037Z,40.18
2023-01-23T23:11:39.671Z,40.22
2023-01-23T23:14:09.745Z,40.35
2023-01-23T23:16:38.688Z,40.34
2023-01-23T23:19:07.535Z,40.49
2023-01-23T23:21:36.981Z,40.43
2023-01-23T23:24:07.818Z,40.57
2023-01-23T23:26:36.399Z,40.56
2023-01-23T23:29:05.284Z,40.69
2023-01-23T23:31:33.864Z,40.63
2023-01-23T23:34:02.857Z,40.91
2023-01-23T23:36:31.280Z,40.68
2023-01-23T23:39:00.079Z,40.81
2023-01-23T23:41:28.628Z,40.95
2023-01-23T23:43:57.466Z,40.83
2023-01-23T23:46:26.017Z,41.06
2023-01-23T23:48:54.753Z,41.13
2023-01-23T23:51:23.508Z,41.11
2023-01-23T23:53:52.307Z,41.42
2023-01-23T23:56:27.059Z,41.24
2023-01-23T23:58:56.098Z,41.15
